createdAt,value
2019-04-22T00:00:55.719Z,21.60
2019-04-22T00:01:58.172Z,21.50
2019-04-22T00:02:58.304Z,21.10
2019-04-22T00:04:00.470Z,21.40
2019-04-22T00:05:05.377Z,21.50
2019-04-22T00:06:16.578Z,20.80
2019-04-22T00:07:17.410Z,20.20
2019-04-22T00:08:17.156Z,21.80
2019-04-22T00:09:17.678Z,21.00
2019-04-22T00:10:21.155Z,21.10
2019-04-22T00:11:18.157Z,21.60
2019-04-22T00:12:22.273Z,21.70
2019-04-22T00:13:22.202Z,20.20
2019-04-22T00:14:14.983Z,21.30
2019-04-22T00:15:10.018Z,21.20
2019-04-22T00:16:14.296Z,21.60
2019-04-22T00:17:23.459Z,20.90
2019-04-22T00:18:22.302Z,21.70
2019-04-22T00:19:20.788Z,20.20
2019-04-22T00:20:16.946Z,20.20
2019-04-22T00:21:19.715Z,21.30
2019-04-22T00:23:20.373Z,22.00
2019-04-22T00:24:17.115Z,20.60
2019-04-22T00:25:19.338Z,21.30
2019-04-22T00:26:16.537Z,22.50
2019-04-22T00:27:20.170Z,21.70
2019-04-22T00:28:19.960Z,20.10
2019-04-22T00:29:37.093Z,20.00
2019-04-22T00:30:16.487Z,21.90
2019-04-22T00:31:15.535Z,21.40
2019-04-22T00:32:14.105Z,20.10
2019-04-22T00:33:13.348Z,20.90
2019-04-22T00:34:09.333Z,20.00
2019-04-22T00:35:13.322Z,18.70
2019-04-22T00:36:16.222Z,19.10
2019-04-22T00:37:17.523Z,19.60
2019-04-22T00:38:17.295Z,19.70
2019-04-22T00:39:21.649Z,21.40
2019-04-22T00:40:23.886Z,21.80
2019-04-22T00:41:25.592Z,19.60
2019-04-22T00:42:14.748Z,20.30
2019-04-22T00:43:19.738Z,20.00
2019-04-22T00:44:21.857Z,20.40
2019-04-22T00:45:24.408Z,20.90
2019-04-22T00:46:23.916Z,20.60
2019-04-22T00:47:23.428Z,20.70
2019-04-22T00:48:22.362Z,21.40
2019-04-22T00:49:59.603Z,20.40
2019-04-22T00:50:24.113Z,21.80
2019-04-22T00:51:36.635Z,22.60
2019-04-22T00:52:16.597Z,21.10
2019-04-22T00:53:22.542Z,22.50
2019-04-22T00:54:15.683Z,22.30
2019-04-22T00:55:23.424Z,22.10
2019-04-22T00:56:30.243Z,22.40
2019-04-22T00:57:15.665Z,22.10
2019-04-22T00:58:16.228Z,22.80
2019-04-22T00:59:20.116Z,23.50
2019-04-22T01:00:21.373Z,23.60
2019-04-22T01:02:22.941Z,22.60
2019-04-22T01:03:19.684Z,23.20
2019-04-22T01:04:25.636Z,22.90
2019-04-22T01:05:21.400Z,22.90
2019-04-22T01:06:17.327Z,23.30
2019-04-22T01:07:21.748Z,24.20
2019-04-22T01:08:21.374Z,23.80
2019-04-22T01:09:19.159Z,25.10
2019-04-22T01:10:19.055Z,25.20
2019-04-22T01:11:22.730Z,23.90
2019-04-22T01:12:19.683Z,23.80
2019-04-22T01:13:19.506Z,24.60
2019-04-22T01:14:14.508Z,22.70
2019-04-22T01:15:15.829Z,22.70
2019-04-22T01:16:20.344Z,22.00
2019-04-22T01:17:17.585Z,23.40
2019-04-22T01:18:11.508Z,23.10
2019-04-22T01:19:12.288Z,21.80
2019-04-22T01:20:43.612Z,22.80
2019-04-22T01:21:37.003Z,22.70
2019-04-22T01:22:19.086Z,22.80
2019-04-22T01:23:11.256Z,22.70
2019-04-22T01:24:14.039Z,23.30
2019-04-22T01:25:14.386Z,22.10
2019-04-22T01:26:13.976Z,21.60
2019-04-22T01:27:08.075Z,20.50
2019-04-22T01:28:06.325Z,21.70
2019-04-22T01:29:05.024Z,20.90
2019-04-22T01:30:03.723Z,21.40
2019-04-22T01:31:00.082Z,21.00
2019-04-22T01:31:51.355Z,21.80
2019-04-22T01:32:53.891Z,21.40
2019-04-22T01:34:05.443Z,21.70
2019-04-22T01:35:05.881Z,22.30
2019-04-22T01:36:10.606Z,21.00
2019-04-22T01:37:07.621Z,21.40
2019-04-22T01:38:08.031Z,21.90
2019-04-22T01:39:15.365Z,21.70
2019-04-22T01:40:17.802Z,21.50
2019-04-22T01:41:16.530Z,21.10
2019-04-22T01:42:10.465Z,22.40
2019-04-22T01:43:18.250Z,22.10
2019-04-22T01:44:35.296Z,23.10
2019-04-22T01:45:19.346Z,20.90
2019-04-22T01:46:23.503Z,20.90
2019-04-22T01:47:21.417Z,20.80
2019-04-22T01:48:17.735Z,22.60
2019-04-22T01:49:16.843Z,21.30
2019-04-22T01:50:24.055Z,21.30
2019-04-22T01:51:12.269Z,20.70
2019-04-22T01:52:15.912Z,21.30
2019-04-22T01:53:24.782Z,21.00
2019-04-22T01:54:22.215Z,20.30
2019-04-22T01:55:25.132Z,21.80
2019-04-22T01:56:20.504Z,20.90
2019-04-22T01:57:10.936Z,19.90
2019-04-22T01:58:11.086Z,22.40
2019-04-22T01:59:12.521Z,19.70
2019-04-22T02:00:05.051Z,20.80
2019-04-22T02:01:22.186Z,21.30
2019-04-22T02:02:16.443Z,20.20
2019-04-22T02:03:22.301Z,21.00
2019-04-22T02:04:17.617Z,19.30
2019-04-22T02:05:18.729Z,19.50
2019-04-22T02:06:28.809Z,18.40
2019-04-22T02:07:16.478Z,15.90
2019-04-22T02:08:28.406Z,17.00
2019-04-22T02:09:24.093Z,15.60
2019-04-22T02:10:26.887Z,14.20
2019-04-22T02:11:17.352Z,14.10
2019-04-22T02:13:20.056Z,14.50
2019-04-22T02:14:19.920Z,13.70
2019-04-22T02:15:17.151Z,13.80
2019-04-22T02:16:15.170Z,14.00
2019-04-22T02:17:17.674Z,13.70
2019-04-22T02:19:22.534Z,14.30
2019-04-22T02:20:19.827Z,14.00
2019-04-22T02:21:13.805Z,13.40
2019-04-22T02:22:17.616Z,12.90
2019-04-22T02:23:42.852Z,13.40
2019-04-22T02:24:18.035Z,12.60
2019-04-22T02:25:15.918Z,13.40
2019-04-22T02:26:16.384Z,13.70
2019-04-22T02:27:24.384Z,13.60
2019-04-22T02:28:26.115Z,15.20
2019-04-22T02:29:17.042Z,16.70
2019-04-22T02:30:13.811Z,15.80
2019-04-22T02:31:25.852Z,15.00
2019-04-22T02:32:27.616Z,16.10
2019-04-22T02:33:48.096Z,16.10
2019-04-22T02:35:35.871Z,15.80
2019-04-22T02:37:21.184Z,16.10
2019-04-22T02:38:34.816Z,16.80
2019-04-22T02:39:20.072Z,16.70
2019-04-22T02:40:17.177Z,15.60
2019-04-22T02:42:14.052Z,16.20
2019-04-22T02:43:34.155Z,16.90
2019-04-22T02:44:26.367Z,15.10
2019-04-22T02:45:28.144Z,15.20
2019-04-22T02:48:34.044Z,13.90
2019-04-22T02:50:36.703Z,13.80
2019-04-22T02:52:26.237Z,13.30
2019-04-22T02:53:58.454Z,12.40
2019-04-22T02:55:25.318Z,12.40
2019-04-22T02:56:27.181Z,13.40
2019-04-22T02:58:32.049Z,12.80
2019-04-22T03:00:35.027Z,12.90
2019-04-22T03:01:29.943Z,12.70
2019-04-22T03:03:33.192Z,13.70
2019-04-22T03:04:20.487Z,12.60
2019-04-22T03:05:33.184Z,12.30
2019-04-22T03:07:18.589Z,11.50
2019-04-22T03:08:23.563Z,10.90
2019-04-22T03:12:23.725Z,11.10
2019-04-22T03:13:29.238Z,10.80
2019-04-22T03:14:38.267Z,10.60
2019-04-22T03:15:15.057Z,10.20
2019-04-22T03:17:25.540Z,11.30
2019-04-22T03:18:34.718Z,10.90
2019-04-22T03:20:14.192Z,10.50
2019-04-22T03:21:18.809Z,10.80
2019-04-22T03:23:38.371Z,10.80
2019-04-22T03:24:25.843Z,10.30
2019-04-22T03:25:51.786Z,10.60
2019-04-22T03:26:30.780Z,9.80
2019-04-22T03:27:16.301Z,10.40
2019-04-22T03:28:31.808Z,10.60
2019-04-22T03:29:17.960Z,10.80
2019-04-22T03:30:47.594Z,10.20
2019-04-22T03:31:34.430Z,10.40
2019-04-22T03:33:36.155Z,10.90
2019-04-22T03:35:09.871Z,9.70
2019-04-22T03:37:00.762Z,10.50
2019-04-22T03:37:45.697Z,10.40
2019-04-22T03:38:20.202Z,10.30
2019-04-22T03:39:45.643Z,10.30
2019-04-22T03:41:48.168Z,10.60
2019-04-22T03:42:31.957Z,10.40
2019-04-22T03:43:33.770Z,10.20
2019-04-22T03:45:26.633Z,10.40
2019-04-22T03:46:21.187Z,10.30
2019-04-22T03:47:32.038Z,10.90
2019-04-22T03:48:17.099Z,10.80
2019-04-22T03:50:25.841Z,10.50
2019-04-22T03:51:42.932Z,10.30
2019-04-22T03:53:36.275Z,11.40
2019-04-22T03:54:32.932Z,10.60
2019-04-22T03:55:23.010Z,10.60
2019-04-22T03:56:56.447Z,10.30
2019-04-22T03:57:44.778Z,10.30
2019-04-22T03:58:11.239Z,11.40
2019-04-22T03:59:28.682Z,10.40
2019-04-22T04:00:26.684Z,10.10
2019-04-22T04:01:30.535Z,10.00
2019-04-22T04:04:27.728Z,10.70
2019-04-22T04:05:33.475Z,10.20
2019-04-22T04:06:43.394Z,11.50
2019-04-22T04:07:38.394Z,9.90
2019-04-22T04:08:30.607Z,10.60
2019-04-22T04:09:24.217Z,10.60
2019-04-22T04:10:30.214Z,10.40
2019-04-22T04:11:29.709Z,9.90
2019-04-22T04:12:25.160Z,10.50
2019-04-22T04:13:33.776Z,10.00
2019-04-22T04:16:21.696Z,9.70
2019-04-22T04:17:26.219Z,10.80
2019-04-22T04:18:18.827Z,9.90
2019-04-22T04:20:32.406Z,10.10
2019-04-22T04:22:30.222Z,9.60
2019-04-22T04:26:26.718Z,9.40
2019-04-22T04:27:50.839Z,9.80
2019-04-22T04:34:43.351Z,9.90
2019-04-22T04:35:43.363Z,10.30
2019-04-22T04:37:40.848Z,9.80
2019-04-22T04:38:21.196Z,10.00
2019-04-22T04:41:29.083Z,9.80
2019-04-22T04:43:26.074Z,9.70
2019-04-22T04:45:34.614Z,10.30
2019-04-22T04:46:43.391Z,10.10
2019-04-22T04:47:38.891Z,10.60
2019-04-22T04:48:27.662Z,10.20
2019-04-22T04:49:24.101Z,10.10
2019-04-22T04:51:26.876Z,11.60
2019-04-22T04:54:30.212Z,10.90
2019-04-22T04:55:26.678Z,11.50
2019-04-22T04:57:32.025Z,10.50
2019-04-22T04:58:36.886Z,11.10
2019-04-22T05:00:45.917Z,10.80
2019-04-22T05:01:24.618Z,11.20
2019-04-22T05:04:30.523Z,12.30
2019-04-22T05:05:37.196Z,11.30
2019-04-22T05:06:26.003Z,11.40
2019-04-22T05:07:27.802Z,11.40
2019-04-22T05:08:33.005Z,11.90
2019-04-22T05:11:26.105Z,10.60
2019-04-22T05:13:40.002Z,11.70
2019-04-22T05:14:19.226Z,11.20
2019-04-22T05:15:27.297Z,11.80
2019-04-22T05:17:18.545Z,11.40
2019-04-22T05:19:20.809Z,10.60
2019-04-22T05:20:21.443Z,11.80
2019-04-22T05:21:17.954Z,10.40
2019-04-22T05:22:13.220Z,10.40
2019-04-22T05:23:25.761Z,10.60
2019-04-22T05:24:38.462Z,10.60
2019-04-22T05:25:20.576Z,11.10
2019-04-22T05:26:22.106Z,10.50
2019-04-22T05:27:19.686Z,10.60
2019-04-22T05:28:17.834Z,10.30
2019-04-22T05:29:19.467Z,10.90
2019-04-22T05:31:16.304Z,9.90
2019-04-22T05:32:31.038Z,9.60
2019-04-22T05:33:18.720Z,10.30
2019-04-22T05:34:19.900Z,10.00
2019-04-22T05:35:14.369Z,9.70
2019-04-22T05:36:15.809Z,9.10
2019-04-22T05:37:14.589Z,10.00
2019-04-22T05:38:17.194Z,10.00
2019-04-22T05:39:11.419Z,8.90
2019-04-22T05:40:19.963Z,9.60
2019-04-22T05:41:17.946Z,9.30
2019-04-22T05:42:14.028Z,9.00
2019-04-22T05:43:14.043Z,8.80
2019-04-22T05:44:16.267Z,9.50
2019-04-22T05:45:22.983Z,8.60
2019-04-22T05:46:09.525Z,8.70
2019-04-22T05:47:16.355Z,8.60
2019-04-22T05:48:15.754Z,8.90
2019-04-22T05:49:18.286Z,8.50
2019-04-22T05:50:16.365Z,9.00
2019-04-22T05:51:21.733Z,8.70
2019-04-22T05:52:14.929Z,8.70
2019-04-22T05:53:07.138Z,9.30
2019-04-22T05:54:17.321Z,8.20
2019-04-22T05:55:16.345Z,8.60
2019-04-22T05:56:20.677Z,8.50
2019-04-22T05:57:14.265Z,8.10
2019-04-22T05:58:29.342Z,8.10
2019-04-22T05:59:12.513Z,8.30
2019-04-22T06:00:16.278Z,8.40
2019-04-22T06:02:39.428Z,7.60
2019-04-22T06:03:11.650Z,8.00
2019-04-22T06:05:14.929Z,8.10
2019-04-22T06:06:15.073Z,7.80
2019-04-22T06:07:13.411Z,7.90
2019-04-22T06:08:13.227Z,7.80
2019-04-22T06:10:21.423Z,7.40
2019-04-22T06:11:19.801Z,7.60
2019-04-22T06:12:05.005Z,8.00
2019-04-22T06:13:04.735Z,7.70
2019-04-22T06:14:08.446Z,8.00
2019-04-22T06:15:16.301Z,8.40
2019-04-22T06:16:09.281Z,7.80
2019-04-22T06:17:19.935Z,7.50
2019-04-22T06:18:20.486Z,8.10
2019-04-22T06:19:14.301Z,7.30
2019-04-22T06:20:13.719Z,7.20
2019-04-22T06:21:11.364Z,7.30
2019-04-22T06:22:25.503Z,7.40
2019-04-22T06:23:24.179Z,7.60
2019-04-22T06:24:16.635Z,7.40
2019-04-22T06:25:22.691Z,7.00
2019-04-22T06:27:14.563Z,6.90
2019-04-22T06:28:22.261Z,7.20
2019-04-22T06:29:15.931Z,7.30
2019-04-22T06:30:16.364Z,6.90
2019-04-22T06:31:18.661Z,7.30
2019-04-22T06:33:19.198Z,7.20
2019-04-22T06:34:17.711Z,7.40
2019-04-22T06:35:23.597Z,7.00
2019-04-22T06:36:16.139Z,6.90
2019-04-22T06:39:18.448Z,7.60
2019-04-22T06:40:13.439Z,7.30
2019-04-22T06:41:14.015Z,6.90
2019-04-22T06:42:13.744Z,7.70
2019-04-22T06:46:17.097Z,7.10
2019-04-22T06:47:25.219Z,6.60
2019-04-22T06:49:18.805Z,6.50
2019-04-22T06:50:16.923Z,6.50
2019-04-22T06:51:13.398Z,6.60
2019-04-22T06:52:17.750Z,6.80
2019-04-22T06:53:09.182Z,6.40
2019-04-22T06:54:17.595Z,6.20
2019-04-22T06:55:15.170Z,6.40
2019-04-22T06:56:12.582Z,5.90
2019-04-22T06:57:13.424Z,6.20
2019-04-22T06:58:10.907Z,6.20
2019-04-22T06:59:14.854Z,6.50
2019-04-22T07:00:14.343Z,5.70
2019-04-22T07:01:18.201Z,6.30
2019-04-22T07:02:18.104Z,5.60
2019-04-22T07:04:13.777Z,5.80
2019-04-22T07:05:17.953Z,5.60
2019-04-22T07:06:12.755Z,6.10
2019-04-22T07:07:12.700Z,5.90
2019-04-22T07:08:30.363Z,6.00
2019-04-22T07:10:26.463Z,6.10
2019-04-22T07:11:07.857Z,6.30
2019-04-22T07:12:11.538Z,5.80
2019-04-22T07:13:17.543Z,6.00
2019-04-22T07:14:09.052Z,5.40
2019-04-22T07:15:23.168Z,5.60
2019-04-22T07:16:15.347Z,5.60
2019-04-22T07:17:27.571Z,6.00
2019-04-22T07:18:18.387Z,5.40
2019-04-22T07:19:18.579Z,5.40
2019-04-22T07:20:10.668Z,6.10
2019-04-22T07:21:25.981Z,6.00
2019-04-22T07:23:13.865Z,5.40
2019-04-22T07:24:28.260Z,5.60
2019-04-22T07:25:10.164Z,5.70
2019-04-22T07:26:08.879Z,5.20
2019-04-22T07:28:13.963Z,5.30
2019-04-22T07:29:16.456Z,5.70
2019-04-22T07:30:15.178Z,5.80
2019-04-22T07:31:12.914Z,5.40
2019-04-22T07:32:12.946Z,5.50
2019-04-22T07:33:26.246Z,5.40
2019-04-22T07:35:20.449Z,5.00
2019-04-22T07:36:30.909Z,5.10
2019-04-22T07:37:22.701Z,5.60
2019-04-22T07:38:22.633Z,5.30
2019-04-22T07:39:10.836Z,5.40
2019-04-22T07:40:11.847Z,5.10
2019-04-22T07:41:27.017Z,4.90
2019-04-22T07:42:12.535Z,5.30
2019-04-22T07:43:20.180Z,5.40
2019-04-22T07:45:13.134Z,5.30
2019-04-22T07:46:13.530Z,5.30
2019-04-22T07:48:18.957Z,4.90
2019-04-22T07:49:13.236Z,4.80
2019-04-22T07:50:30.766Z,5.10
2019-04-22T07:51:15.466Z,5.30
2019-04-22T07:52:09.965Z,5.30
2019-04-22T07:53:10.281Z,5.40
2019-04-22T07:54:16.425Z,5.20
2019-04-22T07:55:05.599Z,5.20
2019-04-22T07:56:16.242Z,5.20
2019-04-22T07:59:15.174Z,5.00
2019-04-22T08:00:16.041Z,5.20
2019-04-22T08:01:13.973Z,5.00
2019-04-22T08:02:10.415Z,5.10
2019-04-22T08:04:30.266Z,4.80
2019-04-22T08:05:13.633Z,5.20
2019-04-22T08:07:12.367Z,4.90
2019-04-22T08:08:20.081Z,4.70
2019-04-22T08:09:16.015Z,4.90
2019-04-22T08:10:17.022Z,4.70
2019-04-22T08:11:22.467Z,5.10
2019-04-22T08:12:02.505Z,4.70
2019-04-22T08:13:11.726Z,5.10
2019-04-22T08:14:14.680Z,5.20
2019-04-22T08:15:12.567Z,5.30
2019-04-22T08:16:10.324Z,4.80
2019-04-22T08:18:12.246Z,4.70
2019-04-22T08:19:15.502Z,4.50
2019-04-22T08:20:18.785Z,4.80
2019-04-22T08:21:13.590Z,4.40
2019-04-22T08:22:07.973Z,4.40
2019-04-22T08:23:17.865Z,4.60
2019-04-22T08:24:28.611Z,4.60
2019-04-22T08:25:10.070Z,4.20
2019-04-22T08:26:16.780Z,4.70
2019-04-22T08:27:11.887Z,4.20
2019-04-22T08:28:13.338Z,4.30
2019-04-22T08:29:14.819Z,4.40
2019-04-22T08:30:14.355Z,4.60
2019-04-22T08:31:14.853Z,4.90
2019-04-22T08:32:15.204Z,4.80
2019-04-22T08:33:15.693Z,4.20
2019-04-22T08:34:14.985Z,4.30
2019-04-22T08:35:18.454Z,4.50
2019-04-22T08:36:18.387Z,4.50
2019-04-22T08:38:14.679Z,4.40
2019-04-22T08:39:14.104Z,4.50
2019-04-22T08:40:15.007Z,4.40
2019-04-22T08:41:18.163Z,3.90
2019-04-22T08:42:17.957Z,4.30
2019-04-22T08:44:17.360Z,3.90
2019-04-22T08:45:14.335Z,3.60
2019-04-22T08:46:21.653Z,4.20
2019-04-22T08:47:21.553Z,4.50
2019-04-22T08:48:07.970Z,4.40
2019-04-22T08:49:23.222Z,4.60
2019-04-22T08:51:15.144Z,4.30
2019-04-22T08:52:18.654Z,4.60
2019-04-22T08:53:14.211Z,4.30
2019-04-22T08:54:11.862Z,4.00
2019-04-22T08:55:12.698Z,5.40
2019-04-22T08:56:24.060Z,5.20
2019-04-22T08:57:15.982Z,5.60
2019-04-22T09:00:08.448Z,5.80
2019-04-22T09:01:13.660Z,5.80
2019-04-22T09:02:16.349Z,5.90
2019-04-22T09:03:11.049Z,6.10
2019-04-22T09:04:08.489Z,6.00
2019-04-22T09:05:20.432Z,5.90
2019-04-22T09:06:19.863Z,5.30
2019-04-22T09:08:14.159Z,5.70
2019-04-22T09:09:26.434Z,6.10
2019-04-22T09:10:15.153Z,5.70
2019-04-22T09:11:16.472Z,5.00
2019-04-22T09:12:20.102Z,4.80
2019-04-22T09:13:14.397Z,4.60
2019-04-22T09:14:22.571Z,3.90
2019-04-22T09:15:16.691Z,3.60
2019-04-22T09:16:17.184Z,3.80
2019-04-22T09:17:14.781Z,3.80
2019-04-22T09:18:14.310Z,4.20
2019-04-22T09:19:12.306Z,3.70
2019-04-22T09:20:13.230Z,3.40
2019-04-22T09:22:13.039Z,3.70
2019-04-22T09:23:14.985Z,3.80
2019-04-22T09:24:10.297Z,3.90
2019-04-22T09:25:06.698Z,3.70
2019-04-22T09:26:10.707Z,3.80
2019-04-22T09:27:22.663Z,3.80
2019-04-22T09:28:15.236Z,4.00
2019-04-22T09:29:12.770Z,4.10
2019-04-22T09:30:15.105Z,3.80
2019-04-22T09:31:11.399Z,3.80
2019-04-22T09:32:16.096Z,3.80
2019-04-22T09:33:14.077Z,4.80
2019-04-22T09:34:06.778Z,3.60
2019-04-22T09:35:09.762Z,3.90
2019-04-22T09:36:16.824Z,3.80
2019-04-22T09:38:28.156Z,4.00
2019-04-22T09:39:10.729Z,4.00
2019-04-22T09:40:22.344Z,4.00
2019-04-22T09:41:16.132Z,3.80
2019-04-22T09:42:11.526Z,4.10
2019-04-22T09:43:17.171Z,4.10
2019-04-22T09:44:09.407Z,4.50
2019-04-22T09:45:13.169Z,4.70
2019-04-22T09:46:19.690Z,4.60
2019-04-22T09:47:16.559Z,4.60
2019-04-22T09:48:16.678Z,4.60
2019-04-22T09:49:23.778Z,4.70
2019-04-22T09:50:09.894Z,4.00
2019-04-22T09:51:11.597Z,4.40
2019-04-22T09:52:13.083Z,4.40
2019-04-22T09:53:08.357Z,4.50
2019-04-22T09:54:17.945Z,4.70
2019-04-22T09:55:15.393Z,4.70
2019-04-22T09:56:09.773Z,3.90
2019-04-22T09:57:08.980Z,4.60
2019-04-22T09:58:13.492Z,4.80
2019-04-22T09:59:07.723Z,4.70
2019-04-22T10:00:13.987Z,5.30
2019-04-22T10:01:18.699Z,4.60
2019-04-22T10:03:16.036Z,5.20
2019-04-22T10:04:06.443Z,4.80
2019-04-22T10:05:15.111Z,4.70
2019-04-22T10:06:16.528Z,5.00
2019-04-22T10:07:17.622Z,4.50
2019-04-22T10:08:18.284Z,5.00
2019-04-22T10:11:13.422Z,4.80
2019-04-22T10:12:10.164Z,4.70
2019-04-22T10:13:12.865Z,4.50
2019-04-22T10:14:16.942Z,5.00
2019-04-22T10:15:06.451Z,4.80
2019-04-22T10:16:15.426Z,4.50
2019-04-22T10:17:07.786Z,4.80
2019-04-22T10:18:09.332Z,4.20
2019-04-22T10:19:11.088Z,4.70
2019-04-22T10:20:10.218Z,4.20
2019-04-22T10:21:14.482Z,4.60
2019-04-22T10:22:14.957Z,4.20
2019-04-22T10:23:17.670Z,4.30
2019-04-22T10:24:09.190Z,4.50
2019-04-22T10:25:10.453Z,5.20
2019-04-22T10:26:12.986Z,4.40
2019-04-22T10:27:08.158Z,4.50
2019-04-22T10:28:15.658Z,4.80
2019-04-22T10:29:14.072Z,4.90
2019-04-22T10:30:15.116Z,4.60
2019-04-22T10:31:09.947Z,4.40
2019-04-22T10:32:07.058Z,4.10
2019-04-22T10:33:08.799Z,4.00
2019-04-22T10:33:58.498Z,4.00
2019-04-22T10:34:51.230Z,4.40
2019-04-22T10:35:45.630Z,4.10
2019-04-22T10:36:50.453Z,4.40
2019-04-22T10:37:45.987Z,4.50
2019-04-22T10:38:44.534Z,4.20
2019-04-22T10:39:51.306Z,4.10
2019-04-22T10:40:44.891Z,4.70
2019-04-22T10:41:44.299Z,4.20
2019-04-22T10:42:45.170Z,4.10
2019-04-22T10:43:43.768Z,4.20
2019-04-22T10:44:45.215Z,4.00
2019-04-22T10:45:44.002Z,4.20
2019-04-22T10:46:44.359Z,4.10
2019-04-22T10:47:43.700Z,3.90
2019-04-22T10:48:44.256Z,3.90
2019-04-22T10:49:44.483Z,4.10
2019-04-22T10:50:43.639Z,4.20
2019-04-22T10:51:44.494Z,4.00
2019-04-22T10:52:43.642Z,4.10
2019-04-22T10:53:43.837Z,4.30
2019-04-22T10:54:43.652Z,3.60
2019-04-22T10:55:45.288Z,4.30
2019-04-22T10:56:43.582Z,3.90
2019-04-22T10:57:44.395Z,4.30
2019-04-22T10:58:44.641Z,4.50
2019-04-22T10:59:44.749Z,4.00
2019-04-22T11:00:43.542Z,3.90
2019-04-22T11:01:44.429Z,4.30
2019-04-22T11:02:43.795Z,4.40
2019-04-22T11:03:43.519Z,3.90
2019-04-22T11:04:43.977Z,3.90
2019-04-22T11:05:44.317Z,3.80
2019-04-22T11:06:52.362Z,4.00
2019-04-22T11:07:53.289Z,4.30
2019-04-22T11:08:52.334Z,4.00
2019-04-22T11:09:54.439Z,4.30
2019-04-22T11:11:00.638Z,3.90
2019-04-22T11:11:51.087Z,3.80
2019-04-22T11:12:45.194Z,3.90
2019-04-22T11:13:44.124Z,3.80
2019-04-22T11:14:43.433Z,3.90
2019-04-22T11:15:44.607Z,3.80
2019-04-22T11:16:43.631Z,4.10
2019-04-22T11:17:43.824Z,3.70
2019-04-22T11:18:43.465Z,4.00
2019-04-22T11:19:43.580Z,3.80
2019-04-22T11:20:44.010Z,4.20
2019-04-22T11:21:44.663Z,3.90
2019-04-22T11:22:44.647Z,3.80
2019-04-22T11:23:44.671Z,4.20
2019-04-22T11:24:44.356Z,3.80
2019-04-22T11:25:43.930Z,3.90
2019-04-22T11:26:43.298Z,3.80
2019-04-22T11:27:44.398Z,4.00
2019-04-22T11:28:43.484Z,3.60
2019-04-22T11:29:43.599Z,3.80
2019-04-22T11:30:44.606Z,4.10
2019-04-22T11:31:44.343Z,4.10
2019-04-22T11:32:44.499Z,3.70
2019-04-22T11:33:44.459Z,3.70
2019-04-22T11:34:43.210Z,4.00
2019-04-22T11:35:43.801Z,4.10
2019-04-22T11:36:43.213Z,3.80
2019-04-22T11:37:43.203Z,3.90
2019-04-22T11:38:47.141Z,4.00
2019-04-22T11:39:48.155Z,3.90
2019-04-22T11:40:49.943Z,3.90
2019-04-22T11:41:46.313Z,4.20
2019-04-22T11:42:44.101Z,4.00
2019-04-22T11:43:43.216Z,4.60
2019-04-22T11:44:43.554Z,4.10
2019-04-22T11:45:43.080Z,4.10
2019-04-22T11:46:43.269Z,3.70
2019-04-22T11:47:43.328Z,3.80
2019-04-22T11:48:43.059Z,4.10
2019-04-22T11:49:43.898Z,3.70
2019-04-22T11:50:43.973Z,4.20
2019-04-22T11:51:43.031Z,3.90
2019-04-22T11:52:43.028Z,3.70
2019-04-22T11:53:42.990Z,3.50
2019-04-22T11:54:43.268Z,3.90
2019-04-22T11:55:42.977Z,3.80
2019-04-22T11:56:43.076Z,4.10
2019-04-22T11:57:43.054Z,4.30
2019-04-22T11:58:42.949Z,3.90
2019-04-22T11:59:42.942Z,3.80
2019-04-22T12:00:43.240Z,4.00
2019-04-22T12:01:42.934Z,3.90
2019-04-22T12:02:43.079Z,3.80
2019-04-22T12:03:44.199Z,4.00
2019-04-22T12:04:43.598Z,3.80
2019-04-22T12:05:43.914Z,4.20
2019-04-22T12:06:44.072Z,3.80
2019-04-22T12:07:42.877Z,4.10
2019-04-22T12:08:43.722Z,4.60
2019-04-22T12:09:43.643Z,4.10
2019-04-22T12:10:50.606Z,3.90
2019-04-22T12:11:44.434Z,3.60
2019-04-22T12:12:44.810Z,3.80
2019-04-22T12:13:44.080Z,3.90
2019-04-22T12:14:42.805Z,3.90
2019-04-22T12:15:42.860Z,3.30
2019-04-22T12:16:43.901Z,3.60
2019-04-22T12:17:42.783Z,3.80
2019-04-22T12:18:43.062Z,4.00
2019-04-22T12:19:44.221Z,3.60
2019-04-22T12:20:43.356Z,3.90
2019-04-22T12:21:42.769Z,3.80
2019-04-22T12:22:42.963Z,3.70
2019-04-22T12:23:43.434Z,3.90
2019-04-22T12:24:42.697Z,3.70
2019-04-22T12:25:51.668Z,3.80
2019-04-22T12:26:44.212Z,3.90
2019-04-22T12:27:43.113Z,3.80
2019-04-22T12:28:42.676Z,4.00
2019-04-22T12:29:42.972Z,3.60
2019-04-22T12:30:43.518Z,3.70
2019-04-22T12:31:42.634Z,3.70
2019-04-22T12:32:43.563Z,3.50
2019-04-22T12:33:43.398Z,4.00
2019-04-22T12:34:43.672Z,3.70
2019-04-22T12:35:42.592Z,3.80
2019-04-22T12:36:42.759Z,3.30
2019-04-22T12:37:49.906Z,3.80
2019-04-22T12:38:44.990Z,3.60
2019-04-22T12:39:45.293Z,3.60
2019-04-22T12:40:51.195Z,3.70
2019-04-22T12:41:44.336Z,3.30
2019-04-22T12:42:42.944Z,3.50
2019-04-22T12:43:43.249Z,3.70
2019-04-22T12:44:44.110Z,3.70
2019-04-22T12:45:42.562Z,3.60
2019-04-22T12:46:43.672Z,3.40
2019-04-22T12:47:42.474Z,3.20
2019-04-22T12:48:43.387Z,3.50
2019-04-22T12:49:46.056Z,3.50
2019-04-22T12:50:44.471Z,4.10
2019-04-22T12:51:42.960Z,4.10
2019-04-22T12:52:50.529Z,3.60
2019-04-22T12:53:44.583Z,4.10
2019-04-22T12:54:42.654Z,4.00
2019-04-22T12:55:43.586Z,4.00
2019-04-22T12:56:43.864Z,3.50
2019-04-22T12:57:42.822Z,3.70
2019-04-22T12:58:43.395Z,3.60
2019-04-22T12:59:43.638Z,3.70
2019-04-22T13:00:44.589Z,3.70
2019-04-22T13:01:42.685Z,3.70
2019-04-22T13:02:43.116Z,3.60
2019-04-22T13:03:42.663Z,3.50
2019-04-22T13:04:43.460Z,3.50
2019-04-22T13:05:53.870Z,3.80
2019-04-22T13:06:44.024Z,3.50
2019-04-22T13:07:44.185Z,3.50
2019-04-22T13:08:43.578Z,3.60
2019-04-22T13:09:43.298Z,3.60
2019-04-22T13:10:53.698Z,3.50
2019-04-22T13:11:45.872Z,3.70
2019-04-22T13:12:42.821Z,3.60
2019-04-22T13:13:42.867Z,3.50
2019-04-22T13:14:43.337Z,3.30
2019-04-22T13:15:42.441Z,3.30
2019-04-22T13:16:42.931Z,3.70
2019-04-22T13:17:44.213Z,3.10
2019-04-22T13:18:50.255Z,3.40
2019-04-22T13:19:44.345Z,3.50
2019-04-22T13:20:42.217Z,3.20
2019-04-22T13:21:42.760Z,3.20
2019-04-22T13:22:43.022Z,3.30
2019-04-22T13:23:42.136Z,3.20
2019-04-22T13:24:42.100Z,3.30
2019-04-22T13:25:42.922Z,2.80
2019-04-22T13:26:43.068Z,3.20
2019-04-22T13:27:42.885Z,3.60
2019-04-22T13:28:43.199Z,3.20
2019-04-22T13:29:43.482Z,3.00
2019-04-22T13:30:42.034Z,3.20
2019-04-22T13:31:42.494Z,3.10
2019-04-22T13:32:42.981Z,3.20
2019-04-22T13:33:43.061Z,2.90
2019-04-22T13:34:46.625Z,3.10
2019-04-22T13:35:47.810Z,3.10
2019-04-22T13:36:44.652Z,2.80
2019-04-22T13:37:43.446Z,3.30
2019-04-22T13:38:44.899Z,2.90
2019-04-22T13:39:43.197Z,3.60
2019-04-22T13:40:59.530Z,3.00
2019-04-22T13:41:49.825Z,3.10
2019-04-22T13:42:42.925Z,3.10
2019-04-22T13:43:42.907Z,3.20
2019-04-22T13:44:41.909Z,3.20
2019-04-22T13:45:41.909Z,3.00
2019-04-22T13:47:02.120Z,3.40
2019-04-22T13:49:09.637Z,3.30
2019-04-22T13:50:17.209Z,3.00
2019-04-22T13:52:22.621Z,2.80
2019-04-22T13:53:22.088Z,3.10
2019-04-22T13:54:14.047Z,3.00
2019-04-22T13:54:40.716Z,3.50
2019-04-22T13:55:13.656Z,3.20
2019-04-22T13:56:05.572Z,3.10
2019-04-22T13:57:01.672Z,3.20
2019-04-22T13:58:02.614Z,2.70
2019-04-22T13:58:58.901Z,3.10
2019-04-22T13:59:46.965Z,2.60
2019-04-22T14:00:42.764Z,2.90
2019-04-22T14:01:43.052Z,3.00
2019-04-22T14:02:42.569Z,3.20
2019-04-22T14:03:42.825Z,3.10
2019-04-22T14:04:42.930Z,2.70
2019-04-22T14:05:42.622Z,3.00
2019-04-22T14:06:42.876Z,3.00
2019-04-22T14:07:43.083Z,2.90
2019-04-22T14:08:43.026Z,2.80
2019-04-22T14:09:42.296Z,2.90
2019-04-22T14:10:42.793Z,2.90
2019-04-22T14:11:49.705Z,2.80
2019-04-22T14:12:42.732Z,2.80
2019-04-22T14:13:41.941Z,2.80
2019-04-22T14:14:42.810Z,2.80
2019-04-22T14:15:42.268Z,2.60
2019-04-22T14:16:42.788Z,2.80
2019-04-22T14:17:43.216Z,2.70
2019-04-22T14:18:44.250Z,2.60
2019-04-22T14:19:42.354Z,2.80
2019-04-22T14:20:42.806Z,2.40
2019-04-22T14:21:44.265Z,2.30
2019-04-22T14:22:44.302Z,2.30
2019-04-22T14:23:42.563Z,2.40
2019-04-22T14:24:42.685Z,2.40
2019-04-22T14:25:43.002Z,2.40
2019-04-22T14:26:54.966Z,2.20
2019-04-22T14:27:51.118Z,2.40
2019-04-22T14:28:43.750Z,2.50
2019-04-22T14:29:41.973Z,2.50
2019-04-22T14:30:42.502Z,2.30
2019-04-22T14:31:42.493Z,2.20
2019-04-22T14:32:42.191Z,2.90
2019-04-22T14:33:46.273Z,2.30
2019-04-22T14:34:42.809Z,2.50
2019-04-22T14:35:41.650Z,2.20
2019-04-22T14:36:43.597Z,2.50
2019-04-22T14:37:42.460Z,2.10
2019-04-22T14:38:57.757Z,2.30
2019-04-22T14:39:42.016Z,2.20
2019-04-22T14:40:43.023Z,2.20
2019-04-22T14:43:00.545Z,2.30
2019-04-22T14:44:08.381Z,2.00
2019-04-22T14:44:54.084Z,2.30
2019-04-22T14:45:18.740Z,2.10
2019-04-22T14:47:11.227Z,2.10